Time;durP1;ratioP1;P1;durP2;ratioP2;P2;SDS_P1;SDS_P2;PMS_P1;PMS_P2;Temp;Humidity;BMP_temperature;BMP_pressure;BME280_temperature;BME280_humidity;BME280_pressure;Samples;Min_cycle;Max_cycle;Signal;HPM_P1;HPM_P2
2022/12/17 13:06:01;;;;;;;0.00;0.00;;;;;;;;;;349163;28;853;-81
2022/12/17 13:06:11;;;;;;;0.00;0.00;;;;;;;;;;349161;28;1378;-80
2022/12/17 13:06:36;;;;;;;0.00;0.00;;;;;;;;;;348010;28;1266;-79
2022/12/17 13:06:52;;;;;;;0.00;0.00;;;;;;;;;;345991;28;982;-80
2022/12/17 13:07:04;;;;;;;0.00;0.00;;;;;;;;;;348025;28;937;-81
2022/12/17 13:07:19;;;;;;;0.00;0.00;;;;;;;;;;346543;28;1307;-81
2022/12/17 13:07:29;;;;;;;0.00;0.00;;;;;;;;;;346565;28;820;-81
2022/12/17 13:07:39;;;;;;;0.00;0.00;;;;;;;;;;346334;28;1353;-81
2022/12/17 13:07:59;;;;;;;1.40;0.60;;;;;;;;;;349508;28;1236;-81
2022/12/17 13:08:09;;;;;;;1.40;0.60;;;;;;;;;;349268;28;1470;-81
2022/12/17 13:08:21;;;;;;;0.00;0.00;;;;;;;;;;349559;28;1365;-81
2022/12/17 13:08:31;;;;;;;0.00;0.00;;;;;;;;;;349307;28;1449;-82
2022/12/17 13:08:46;;;;;;;0.00;0.00;;;;;;;;;;347463;28;1324;-80
2022/12/17 13:09:24;;;;;;;0.30;0.30;;;;;;;;;;349478;28;1492;-80
2022/12/17 13:09:38;;;;;;;0.00;0.00;;;;;;;;;;346550;28;1352;-80
2022/12/17 13:09:49;;;;;;;0.00;0.00;;;;;;;;;;344516;28;1493;-81
2022/12/17 13:10:00;;;;;;;0.10;0.10;;;;;;;;;;344078;28;1431;-80
2022/12/17 13:10:20;;;;;;;0.10;0.10;;;;;;;;;;343505;28;1268;-80
2022/12/17 13:10:30;;;;;;;0.00;0.00;;;;;;;;;;342421;28;994;-80
2022/12/17 13:10:40;;;;;;;0.00;0.00;;;;;;;;;;341337;28;1344;-80
2022/12/17 13:10:51;;;;;;;0.00;0.00;;;;;;;;;;341150;28;1313;-79
2022/12/17 13:11:40;;;;;;;0.00;0.00;;;;;;;;;;338504;29;1413;-82
2022/12/17 13:11:59;;;;;;;0.00;0.00;;;;;;;;;;336394;29;1296;-80
2022/12/17 13:12:14;;;;;;;0.00;0.00;;;;;;;;;;333560;29;1377;-81
2022/12/17 13:12:28;;;;;;;0.00;0.00;;;;;;;;;;332628;29;1275;-80
2022/12/17 13:12:44;;;;;;;0.00;0.00;;;;;;;;;;335794;29;1403;-80
2022/12/17 13:12:55;;;;;;;0.00;0.00;;;;;;;;;;335376;29;1698;-80
2022/12/17 13:13:09;;;;;;;0.00;0.00;;;;;;;;;;334932;29;1363;-80
2022/12/17 13:13:30;;;;;;;0.00;0.00;;;;;;;;;;333412;29;1412;-80
2022/12/17 13:13:54;;;;;;;0.00;0.00;;;;;;;;;;334173;29;1471;-81
2022/12/17 13:14:08;;;;;;;0.00;0.00;;;;;;;;;;332675;29;1430;-82
2022/12/17 13:14:20;;;;;;;0.00;0.00;;;;;;;;;;329397;29;1823;-80
2022/12/17 13:14:53;;;;;;;0.00;0.00;;;;;;;;;;330977;29;1658;-81
2022/12/17 13:15:04;;;;;;;0.00;0.00;;;;;;;;;;327039;29;1922;-80
2022/12/17 13:15:22;;;;;;;0.00;0.00;;;;;;;;;;326994;30;1326;-80
2022/12/17 13:15:35;;;;;;;0.00;0.00;;;;;;;;;;328402;30;1526;-80
2022/12/17 13:15:48;;;;;;;0.00;0.00;;;;;;;;;;328264;30;1413;-80
2022/12/17 13:16:00;;;;;;;0.00;0.00;;;;;;;;;;327151;30;1013;-80
2022/12/17 13:16:30;;;;;;;0.00;0.00;;;;;;;;;;325459;30;1430;-80
2022/12/17 13:16:43;;;;;;;0.00;0.00;;;;;;;;;;325796;30;2055;-80
2022/12/17 13:16:54;;;;;;;0.00;0.00;;;;;;;;;;323654;30;2334;-80
2022/12/17 13:17:20;;;;;;;0.00;0.00;;;;;;;;;;320717;30;2446;-80
2022/12/17 13:17:31;;;;;;;0.00;0.00;;;;;;;;;;322306;30;1063;-80
2022/12/17 13:17:43;;;;;;;0.00;0.00;;;;;;;;;;322081;30;1413;-81
2022/12/17 13:17:53;;;;;;;0.00;0.00;;;;;;;;;;319278;30;1283;-80
2022/12/17 13:18:14;;;;;;;0.10;0.10;;;;;;;;;;319129;30;1611;-80
2022/12/17 13:18:39;;;;;;;0.10;0.10;;;;;;;;;;316944;31;2341;-80
2022/12/17 13:18:51;;;;;;;0.00;0.00;;;;;;;;;;316105;31;3317;-80
2022/12/17 13:19:23;;;;;;;0.80;0.30;;;;;;;;;;310508;31;1446;-80
2022/12/17 13:19:34;;;;;;;0.10;0.00;;;;;;;;;;306131;32;2804;-81
2022/12/17 13:19:46;;;;;;;0.10;0.00;;;;;;;;;;305546;32;1440;-81
2022/12/17 13:20:01;;;;;;;0.00;0.00;;;;;;;;;;302972;32;1677;-80
2022/12/17 13:20:40;;;;;;;0.00;0.00;;;;;;;;;;300909;32;1812;-80
2022/12/17 13:21:01;;;;;;;0.00;0.00;;;;;;;;;;294052;33;4226;-80
2022/12/17 13:21:14;;;;;;;0.30;0.20;;;;;;;;;;294800;33;4347;-81
2022/12/17 13:21:25;;;;;;;0.40;0.40;;;;;;;;;;293347;33;4601;-81
2022/12/17 13:21:35;;;;;;;0.15;0.15;;;;;;;;;;293792;32;4373;-81
2022/12/17 13:21:45;;;;;;;0.30;0.30;;;;;;;;;;296327;33;1207;-81
2022/12/17 13:21:56;;;;;;;0.10;0.10;;;;;;;;;;293624;33;4597;-81
2022/12/17 13:22:15;;;;;;;0.10;0.10;;;;;;;;;;293689;33;2463;-79
2022/12/17 13:22:27;;;;;;;0.00;0.00;;;;;;;;;;292472;33;3049;-79
2022/12/17 13:22:47;;;;;;;0.00;0.00;;;;;;;;;;292917;33;3869;-81
2022/12/17 13:23:05;;;;;;;1.00;1.00;;;;;;;;;;288618;33;5653;-81
2022/12/17 13:23:17;;;;;;;1.00;1.00;;;;;;;;;;286696;34;935;-81
2022/12/17 13:23:30;;;;;;;0.20;0.20;;;;;;;;;;280781;34;7337;-79
2022/12/17 13:23:40;;;;;;;0.10;0.10;;;;;;;;;;281654;34;7859;-79
2022/12/17 13:23:50;;;;;;;0.03;0.03;;;;;;;;;;279370;35;5914;-79
2022/12/17 13:24:08;;;;;;;0.00;0.00;;;;;;;;;;280228;35;1225;-80
2022/12/17 13:24:25;;;;;;;0.00;0.00;;;;;;;;;;275456;35;4629;-81
2022/12/17 13:24:35;;;;;;;0.00;0.00;;;;;;;;;;274156;35;5557;-81
2022/12/17 13:26:39;;;;;;;0.20;0.20;;;;;;;;;;2491035;27;20479;-82
2022/12/17 13:26:49;;;;;;;0.05;0.05;;;;;;;;;;353252;28;1194;-78
2022/12/17 13:26:59;;;;;;;0.90;0.70;;;;;;;;;;350671;28;1210;-82
2022/12/17 13:27:29;;;;;;;0.90;0.70;;;;;;;;;;349229;28;1342;-80
2022/12/17 13:27:39;;;;;;;0.00;0.00;;;;;;;;;;348047;28;837;-81
2022/12/17 13:27:49;;;;;;;0.00;0.00;;;;;;;;;;346710;28;1208;-80
2022/12/17 13:27:59;;;;;;;0.00;0.00;;;;;;;;;;348127;28;1216;-82
2022/12/17 13:28:26;;;;;;;0.00;0.00;;;;;;;;;;347802;28;1311;-81
2022/12/17 13:28:36;;;;;;;0.00;0.00;;;;;;;;;;346157;28;1466;-80
2022/12/17 13:29:10;;;;;;;0.00;0.00;;;;;;;;;;346627;28;1062;-81
2022/12/17 13:29:23;;;;;;;0.00;0.00;;;;;;;;;;344856;28;903;-81
2022/12/17 13:29:34;;;;;;;0.00;0.00;;;;;;;;;;345078;28;1268;-81
2022/12/17 13:29:44;;;;;;;0.00;0.00;;;;;;;;;;343926;28;1330;-81
2022/12/17 13:29:55;;;;;;;0.00;0.00;;;;;;;;;;344986;28;1227;-81
2022/12/17 13:30:17;;;;;;;0.00;0.00;;;;;;;;;;345236;28;959;-80
2022/12/17 13:30:34;;;;;;;0.00;0.00;;;;;;;;;;343723;28;1335;-81
2022/12/17 13:30:44;;;;;;;0.00;0.00;;;;;;;;;;345648;28;1510;-80
2022/12/17 13:31:05;;;;;;;0.00;0.00;;;;;;;;;;345154;28;1443;-82
2022/12/17 13:31:16;;;;;;;0.00;0.00;;;;;;;;;;344035;28;1404;-80
2022/12/17 13:31:31;;;;;;;0.00;0.00;;;;;;;;;;344054;28;1356;-80
2022/12/17 13:32:03;;;;;;;0.10;0.10;;;;;;;;;;346359;28;1338;-80
2022/12/17 13:32:18;;;;;;;0.00;0.00;;;;;;;;;;346784;28;1302;-80
2022/12/17 13:32:30;;;;;;;0.00;0.00;;;;;;;;;;347535;28;1346;-82
2022/12/17 13:32:56;;;;;;;0.00;0.00;;;;;;;;;;344216;28;1385;-81
2022/12/17 13:33:06;;;;;;;0.00;0.00;;;;;;;;;;340293;28;1373;-80
2022/12/17 13:33:20;;;;;;;0.00;0.00;;;;;;;;;;339315;29;1239;-80
2022/12/17 13:33:36;;;;;;;0.00;0.00;;;;;;;;;;339401;29;931;-81
2022/12/17 13:33:52;;;;;;;0.00;0.00;;;;;;;;;;341157;29;1327;-80
2022/12/17 13:34:03;;;;;;;0.00;0.00;;;;;;;;;;339530;29;1273;-81
2022/12/17 13:34:32;;;;;;;0.00;0.00;;;;;;;;;;340830;29;1348;-81
2022/12/17 13:34:45;;;;;;;0.10;0.10;;;;;;;;;;339012;29;940;-81
2022/12/17 13:35:14;;;;;;;0.00;0.00;;;;;;;;;;338465;29;1504;-81
2022/12/17 13:35:40;;;;;;;0.00;0.00;;;;;;;;;;337612;29;1423;-81
2022/12/17 13:36:09;;;;;;;0.00;0.00;;;;;;;;;;335373;29;1512;-81
2022/12/17 13:36:19;;;;;;;0.00;0.00;;;;;;;;;;332666;29;1258;-81
2022/12/17 13:36:32;;;;;;;0.00;0.00;;;;;;;;;;329825;29;1761;-80
2022/12/17 13:36:46;;;;;;;0.00;0.00;;;;;;;;;;327573;29;2012;-81
2022/12/17 13:37:01;;;;;;;0.00;0.00;;;;;;;;;;333436;29;1427;-81
2022/12/17 13:37:24;;;;;;;0.00;0.00;;;;;;;;;;332235;29;1306;-80
2022/12/17 13:37:41;;;;;;;0.00;0.00;;;;;;;;;;328454;30;2268;-79
2022/12/17 13:37:51;;;;;;;0.00;0.00;;;;;;;;;;329461;30;1723;-79
2022/12/17 13:38:05;;;;;;;0.00;0.00;;;;;;;;;;330555;29;1256;-80
2022/12/17 13:38:28;;;;;;;0.00;0.00;;;;;;;;;;331140;29;1367;-80
2022/12/17 13:38:54;;;;;;;0.00;0.00;;;;;;;;;;327262;30;1262;-80
2022/12/17 13:39:27;;;;;;;0.00;0.00;;;;;;;;;;323820;30;2216;-80
2022/12/17 13:39:46;;;;;;;0.00;0.00;;;;;;;;;;321080;30;1326;-80
2022/12/17 13:40:11;;;;;;;0.00;0.00;;;;;;;;;;318500;31;1325;-79
2022/12/17 13:40:30;;;;;;;0.00;0.00;;;;;;;;;;314849;31;1575;-79
2022/12/17 13:40:58;;;;;;;0.00;0.00;;;;;;;;;;312141;31;859;-79
2022/12/17 13:41:12;;;;;;;0.10;0.10;;;;;;;;;;309633;31;2685;-79
2022/12/17 13:41:29;;;;;;;0.00;0.00;;;;;;;;;;314281;31;1133;-79
2022/12/17 13:41:39;;;;;;;0.00;0.00;;;;;;;;;;308824;32;863;-79
2022/12/17 13:41:51;;;;;;;0.00;0.00;;;;;;;;;;310538;31;3355;-79
2022/12/17 13:42:02;;;;;;;0.00;0.00;;;;;;;;;;311504;31;3808;-80
2022/12/17 13:42:21;;;;;;;0.00;0.00;;;;;;;;;;312171;31;776;-79
2022/12/17 13:42:33;;;;;;;0.05;0.05;;;;;;;;;;302135;32;2430;-79
2022/12/17 13:42:44;;;;;;;0.35;0.25;;;;;;;;;;299521;32;2564;-79
2022/12/17 13:42:54;;;;;;;0.60;0.50;;;;;;;;;;297224;33;1359;-79
2022/12/17 13:43:11;;;;;;;0.40;0.40;;;;;;;;;;297571;33;3250;-79
2022/12/17 13:43:23;;;;;;;0.00;0.00;;;;;;;;;;297169;33;4606;-79
2022/12/17 13:43:43;;;;;;;0.00;0.00;;;;;;;;;;297903;32;4407;-79
2022/12/17 13:43:55;;;;;;;0.00;0.00;;;;;;;;;;294948;33;1606;-79
2022/12/17 13:44:16;;;;;;;0.00;0.00;;;;;;;;;;293603;33;3744;-79
2022/12/17 13:44:30;;;;;;;0.00;0.00;;;;;;;;;;291944;33;1720;-79
2022/12/17 13:44:43;;;;;;;0.00;0.00;;;;;;;;;;287596;34;998;-79
2022/12/17 13:44:53;;;;;;;0.00;0.00;;;;;;;;;;284775;34;1299;-79
2022/12/17 13:45:04;;;;;;;0.40;0.40;;;;;;;;;;281827;34;4163;-79
2022/12/17 13:45:14;;;;;;;0.40;0.40;;;;;;;;;;279617;34;4800;-79
2022/12/17 13:45:25;;;;;;;0.47;0.47;;;;;;;;;;283904;34;1054;-79
2022/12/17 13:45:35;;;;;;;0.10;0.10;;;;;;;;;;285162;34;6624;-79
2022/12/17 13:45:45;;;;;;;0.10;0.10;;;;;;;;;;285425;34;6424;-79
2022/12/17 13:45:55;;;;;;;0.20;0.20;;;;;;;;;;285851;34;876;-79
2022/12/17 13:46:06;;;;;;;0.20;0.20;;;;;;;;;;281712;34;7160;-80
2022/12/17 13:46:20;;;;;;;0.20;0.20;;;;;;;;;;281651;34;5521;-79
2022/12/17 13:46:33;;;;;;;0.06;0.06;;;;;;;;;;281521;34;6741;-79
2022/12/17 13:46:44;;;;;;;0.00;0.00;;;;;;;;;;281980;34;5933;-79
2022/12/17 13:46:54;;;;;;;0.00;0.00;;;;;;;;;;283148;35;1627;-78
2022/12/17 13:47:06;;;;;;;0.00;0.00;;;;;;;;;;279188;35;5612;-80
2022/12/17 13:47:23;;;;;;;0.10;0.10;;;;;;;;;;277032;35;5945;-78
2022/12/17 13:47:34;;;;;;;0.10;0.10;;;;;;;;;;272223;35;7357;-79
2022/12/17 13:49:36;;;;;;;0.36;0.33;;;;;;;;;;2490866;27;20489;-79
2022/12/17 13:49:50;;;;;;;1.83;1.40;;;;;;;;;;354575;27;895;-79
2022/12/17 13:50:01;;;;;;;4.20;3.80;;;;;;;;;;353067;28;1274;-80
2022/12/17 13:50:18;;;;;;;3.00;2.80;;;;;;;;;;351489;28;1032;-80
2022/12/17 13:50:29;;;;;;;0.55;0.28;;;;;;;;;;350765;28;1278;-80
2022/12/17 13:50:39;;;;;;;0.40;0.20;;;;;;;;;;349657;28;1220;-80
2022/12/17 13:50:53;;;;;;;0.17;0.10;;;;;;;;;;347223;28;839;-80
2022/12/17 13:51:03;;;;;;;0.00;0.00;;;;;;;;;;348094;28;1452;-79
2022/12/17 13:51:17;;;;;;;0.00;0.00;;;;;;;;;;349704;28;1188;-79
2022/12/17 13:51:28;;;;;;;0.00;0.00;;;;;;;;;;350242;28;1069;-79
2022/12/17 13:51:38;;;;;;;2.58;1.88;;;;;;;;;;350084;28;1287;-79
2022/12/17 13:52:07;;;;;;;3.10;2.30;;;;;;;;;;348329;28;1268;-79
2022/12/17 13:52:19;;;;;;;0.00;0.00;;;;;;;;;;351009;28;1394;-80
2022/12/17 13:52:32;;;;;;;0.00;0.00;;;;;;;;;;351215;28;1463;-80
2022/12/17 13:52:42;;;;;;;0.00;0.00;;;;;;;;;;350162;28;969;-79
2022/12/17 13:52:53;;;;;;;0.00;0.00;;;;;;;;;;351055;28;923;-80
2022/12/17 13:53:10;;;;;;;0.00;0.00;;;;;;;;;;351007;28;943;-80
2022/12/17 13:53:21;;;;;;;0.00;0.00;;;;;;;;;;349028;28;1431;-80
2022/12/17 13:53:34;;;;;;;0.00;0.00;;;;;;;;;;346368;28;1297;-80
2022/12/17 13:53:51;;;;;;;0.00;0.00;;;;;;;;;;346529;28;1296;-79
2022/12/17 13:54:02;;;;;;;0.00;0.00;;;;;;;;;;347440;28;1132;-80
2022/12/17 13:54:16;;;;;;;0.00;0.00;;;;;;;;;;346220;28;1355;-81
2022/12/17 13:54:27;;;;;;;1.20;0.80;;;;;;;;;;344563;28;1470;-80
2022/12/17 13:54:37;;;;;;;1.20;0.80;;;;;;;;;;346089;28;1197;-80
2022/12/17 13:54:47;;;;;;;0.00;0.00;;;;;;;;;;348012;28;1267;-80
2022/12/17 13:55:09;;;;;;;0.80;0.50;;;;;;;;;;348557;28;1382;-80
2022/12/17 13:55:20;;;;;;;0.80;0.50;;;;;;;;;;347629;28;1548;-82
2022/12/17 13:55:30;;;;;;;0.00;0.00;;;;;;;;;;347966;28;1286;-83
2022/12/17 13:55:47;;;;;;;0.00;0.00;;;;;;;;;;347535;28;1295;-80
2022/12/17 13:55:58;;;;;;;0.00;0.00;;;;;;;;;;346609;28;1275;-80
2022/12/17 13:56:09;;;;;;;0.00;0.00;;;;;;;;;;346702;28;1221;-81
2022/12/17 13:56:23;;;;;;;0.00;0.00;;;;;;;;;;345516;28;1409;-80
2022/12/17 13:56:33;;;;;;;0.00;0.00;;;;;;;;;;345384;28;1491;-78
2022/12/17 13:56:44;;;;;;;0.00;0.00;;;;;;;;;;347027;28;1193;-81
2022/12/17 13:56:54;;;;;;;0.00;0.00;;;;;;;;;;344875;28;1321;-79
2022/12/17 13:57:08;;;;;;;0.10;0.10;;;;;;;;;;342296;28;1019;-79
2022/12/17 13:57:19;;;;;;;0.03;0.03;;;;;;;;;;344198;28;1437;-80
2022/12/17 13:57:30;;;;;;;0.10;0.10;;;;;;;;;;344236;28;1460;-81
2022/12/17 13:57:45;;;;;;;0.20;0.20;;;;;;;;;;344018;28;1492;-81
2022/12/17 13:57:55;;;;;;;0.20;0.20;;;;;;;;;;341126;28;1866;-81
2022/12/17 13:58:17;;;;;;;0.20;0.20;;;;;;;;;;336912;29;1359;-81
2022/12/17 13:58:31;;;;;;;0.05;0.05;;;;;;;;;;333575;29;1303;-81
2022/12/17 13:58:41;;;;;;;0.00;0.00;;;;;;;;;;334080;29;1296;-80
2022/12/17 13:58:52;;;;;;;0.10;0.10;;;;;;;;;;332606;29;1247;-80
2022/12/17 13:59:03;;;;;;;0.00;0.00;;;;;;;;;;333729;29;841;-80
2022/12/17 13:59:18;;;;;;;0.00;0.00;;;;;;;;;;332061;29;1468;-80
2022/12/17 13:59:29;;;;;;;0.00;0.00;;;;;;;;;;333502;29;1522;-80
2022/12/17 13:59:39;;;;;;;0.00;0.00;;;;;;;;;;332550;29;894;-80
2022/12/17 13:59:51;;;;;;;0.10;0.10;;;;;;;;;;333783;29;1369;-80
2022/12/17 14:00:01;;;;;;;0.05;0.05;;;;;;;;;;335212;29;1836;-80
2022/12/17 14:00:18;;;;;;;0.05;0.05;;;;;;;;;;335751;29;2101;-81
2022/12/17 14:00:28;;;;;;;0.00;0.00;;;;;;;;;;334530;29;1798;-80
2022/12/17 14:00:39;;;;;;;0.00;0.00;;;;;;;;;;333616;29;1185;-80
2022/12/17 14:00:49;;;;;;;0.00;0.00;;;;;;;;;;328725;29;1610;-80
2022/12/17 14:01:03;;;;;;;0.00;0.00;;;;;;;;;;330172;29;1224;-80
2022/12/17 14:01:13;;;;;;;0.00;0.00;;;;;;;;;;332483;29;1104;-80
2022/12/17 14:01:26;;;;;;;0.00;0.00;;;;;;;;;;331854;29;902;-81
2022/12/17 14:01:46;;;;;;;0.10;0.10;;;;;;;;;;325162;30;1295;-81
2022/12/17 14:01:56;;;;;;;0.05;0.05;;;;;;;;;;319292;30;2288;-81
2022/12/17 14:02:20;;;;;;;0.00;0.00;;;;;;;;;;318536;31;849;-81
2022/12/17 14:02:31;;;;;;;0.00;0.00;;;;;;;;;;314833;30;2510;-80
2022/12/17 14:02:41;;;;;;;0.05;0.05;;;;;;;;;;311255;31;2366;-80
2022/12/17 14:02:52;;;;;;;0.07;0.07;;;;;;;;;;311990;31;1343;-80
2022/12/17 14:03:08;;;;;;;0.10;0.10;;;;;;;;;;314589;31;1606;-80
2022/12/17 14:03:20;;;;;;;0.00;0.00;;;;;;;;;;312760;31;962;-80
2022/12/17 14:03:30;;;;;;;0.20;0.20;;;;;;;;;;313742;31;1988;-80
2022/12/17 14:03:48;;;;;;;0.30;0.30;;;;;;;;;;312528;31;1989;-79
2022/12/17 14:03:59;;;;;;;0.22;0.22;;;;;;;;;;309139;31;2715;-78
2022/12/17 14:04:17;;;;;;;0.10;0.10;;;;;;;;;;308475;32;1328;-79
2022/12/17 14:04:28;;;;;;;0.00;0.00;;;;;;;;;;305857;32;3616;-79
2022/12/17 14:04:38;;;;;;;0.00;0.00;;;;;;;;;;304539;32;891;-79
2022/12/17 14:04:50;;;;;;;0.00;0.00;;;;;;;;;;303016;32;3285;-78
2022/12/17 14:05:01;;;;;;;0.00;0.00;;;;;;;;;;300835;32;3113;-78
2022/12/17 14:05:41;;;;;;;0.00;0.00;;;;;;;;;;298702;32;2192;-78
2022/12/17 14:05:51;;;;;;;0.00;0.00;;;;;;;;;;292400;33;914;-79
2022/12/17 14:06:01;;;;;;;0.00;0.00;;;;;;;;;;289555;33;3512;-78
2022/12/17 14:06:11;;;;;;;0.00;0.00;;;;;;;;;;288166;33;4271;-78
2022/12/17 14:06:25;;;;;;;0.00;0.00;;;;;;;;;;288301;34;840;-78
2022/12/17 14:06:36;;;;;;;0.00;0.00;;;;;;;;;;287215;34;1078;-78
2022/12/17 14:06:46;;;;;;;0.00;0.00;;;;;;;;;;283951;34;5269;-78
2022/12/17 14:06:57;;;;;;;0.00;0.00;;;;;;;;;;282638;34;4926;-79
2022/12/17 14:07:08;;;;;;;0.00;0.00;;;;;;;;;;283170;34;947;-79
2022/12/17 14:07:18;;;;;;;0.00;0.00;;;;;;;;;;281450;34;4430;-79
2022/12/17 14:07:28;;;;;;;0.00;0.00;;;;;;;;;;281847;34;3995;-78
2022/12/17 14:07:38;;;;;;;0.00;0.00;;;;;;;;;;279234;35;1248;-79
2022/12/17 14:07:51;;;;;;;0.00;0.00;;;;;;;;;;276735;35;2968;-80
2022/12/17 14:08:02;;;;;;;0.00;0.00;;;;;;;;;;278375;35;3783;-80
2022/12/17 14:08:14;;;;;;;0.00;0.00;;;;;;;;;;277271;35;5659;-78
2022/12/17 14:08:25;;;;;;;0.00;0.00;;;;;;;;;;277468;35;1917;-79
2022/12/17 14:08:35;;;;;;;0.10;0.10;;;;;;;;;;274365;36;1167;-79
2022/12/17 14:08:46;;;;;;;0.00;0.00;;;;;;;;;;274084;35;5899;-79
2022/12/17 14:08:57;;;;;;;0.00;0.00;;;;;;;;;;273002;35;8695;-79
2022/12/17 14:09:11;;;;;;;0.00;0.00;;;;;;;;;;270557;36;1330;-80
2022/12/17 14:09:23;;;;;;;0.00;0.00;;;;;;;;;;266924;37;1004;-77
2022/12/17 14:09:36;;;;;;;0.00;0.00;;;;;;;;;;263427;36;6776;-79
2022/12/17 14:09:46;;;;;;;0.10;0.10;;;;;;;;;;263324;37;5729;-80
2022/12/17 14:09:56;;;;;;;0.10;0.10;;;;;;;;;;263619;36;4560;-80
2022/12/17 14:10:15;;;;;;;0.10;0.10;;;;;;;;;;264068;37;1289;-80
2022/12/17 14:12:34;;;;;;;1.19;0.91;;;;;;;;;;2496664;27;20295;-79
2022/12/17 14:12:44;;;;;;;2.45;1.75;;;;;;;;;;353148;28;1342;-79
2022/12/17 14:13:07;;;;;;;0.00;0.00;;;;;;;;;;352412;28;1329;-78
2022/12/17 14:13:17;;;;;;;0.00;0.00;;;;;;;;;;349090;28;1411;-77
2022/12/17 14:13:28;;;;;;;0.00;0.00;;;;;;;;;;349202;28;1445;-77
2022/12/17 14:13:38;;;;;;;0.00;0.00;;;;;;;;;;350674;28;1263;-78
2022/12/17 14:13:49;;;;;;;0.00;0.00;;;;;;;;;;350599;28;1314;-77
2022/12/17 14:13:59;;;;;;;0.10;0.10;;;;;;;;;;351869;28;1318;-78
2022/12/17 14:14:17;;;;;;;0.00;0.00;;;;;;;;;;350769;28;1198;-78
2022/12/17 14:14:28;;;;;;;0.00;0.00;;;;;;;;;;351632;28;1556;-79
2022/12/17 14:14:39;;;;;;;0.00;0.00;;;;;;;;;;351626;28;897;-79
2022/12/17 14:14:56;;;;;;;0.00;0.00;;;;;;;;;;349554;28;1310;-79
2022/12/17 14:15:10;;;;;;;0.00;0.00;;;;;;;;;;350367;28;1309;-79
2022/12/17 14:15:24;;;;;;;0.00;0.00;;;;;;;;;;349034;28;867;-79
2022/12/17 14:15:34;;;;;;;0.00;0.00;;;;;;;;;;347532;28;1287;-79
2022/12/17 14:15:46;;;;;;;0.00;0.00;;;;;;;;;;349021;28;1290;-79
2022/12/17 14:15:56;;;;;;;0.00;0.00;;;;;;;;;;348799;28;1296;-79
2022/12/17 14:16:06;;;;;;;0.00;0.00;;;;;;;;;;347493;28;891;-79
2022/12/17 14:16:18;;;;;;;0.00;0.00;;;;;;;;;;349189;28;843;-78
2022/12/17 14:16:28;;;;;;;0.00;0.00;;;;;;;;;;348808;28;1315;-79
2022/12/17 14:16:39;;;;;;;0.00;0.00;;;;;;;;;;347191;28;1264;-78
2022/12/17 14:16:49;;;;;;;0.00;0.00;;;;;;;;;;348905;28;1248;-78
2022/12/17 14:16:59;;;;;;;0.00;0.00;;;;;;;;;;348048;28;1223;-78
2022/12/17 14:17:22;;;;;;;0.00;0.00;;;;;;;;;;347236;28;1196;-78
2022/12/17 14:17:46;;;;;;;0.00;0.00;;;;;;;;;;348081;28;1033;-78
2022/12/17 14:17:58;;;;;;;0.00;0.00;;;;;;;;;;346392;28;1155;-78
2022/12/17 14:18:09;;;;;;;0.00;0.00;;;;;;;;;;347974;28;1417;-78
2022/12/17 14:18:19;;;;;;;0.00;0.00;;;;;;;;;;348113;28;1065;-78
2022/12/17 14:18:29;;;;;;;0.00;0.00;;;;;;;;;;346860;28;1215;-79
2022/12/17 14:18:40;;;;;;;4.10;3.30;;;;;;;;;;343862;28;1421;-78
2022/12/17 14:18:51;;;;;;;4.10;3.30;;;;;;;;;;343563;28;828;-78
2022/12/17 14:19:01;;;;;;;3.97;3.25;;;;;;;;;;338462;29;873;-78
2022/12/17 14:19:11;;;;;;;0.10;0.10;;;;;;;;;;340018;28;1473;-78
2022/12/17 14:19:22;;;;;;;0.10;0.10;;;;;;;;;;338860;29;1228;-78
2022/12/17 14:19:32;;;;;;;0.10;0.10;;;;;;;;;;342050;28;1221;-78
2022/12/17 14:19:42;;;;;;;0.10;0.10;;;;;;;;;;343135;28;942;-78
2022/12/17 14:19:56;;;;;;;0.00;0.00;;;;;;;;;;341010;28;1185;-78
2022/12/17 14:20:09;;;;;;;0.00;0.00;;;;;;;;;;341804;28;1476;-78
2022/12/17 14:20:24;;;;;;;0.00;0.00;;;;;;;;;;340719;29;1326;-78
2022/12/17 14:20:34;;;;;;;0.00;0.00;;;;;;;;;;342894;28;1312;-78
2022/12/17 14:20:44;;;;;;;0.00;0.00;;;;;;;;;;342168;28;921;-78
2022/12/17 14:20:55;;;;;;;0.00;0.00;;;;;;;;;;341890;28;1286;-78
2022/12/17 14:21:05;;;;;;;0.10;0.10;;;;;;;;;;339427;29;1225;-78
2022/12/17 14:21:15;;;;;;;0.10;0.10;;;;;;;;;;338037;29;1625;-78
2022/12/17 14:21:27;;;;;;;0.00;0.00;;;;;;;;;;338004;29;1914;-77
2022/12/17 14:21:37;;;;;;;0.00;0.00;;;;;;;;;;337244;29;1116;-78
2022/12/17 14:21:47;;;;;;;0.00;0.00;;;;;;;;;;337135;29;881;-78
2022/12/17 14:21:58;;;;;;;0.00;0.00;;;;;;;;;;336942;29;1369;-78
2022/12/17 14:22:10;;;;;;;0.00;0.00;;;;;;;;;;338294;29;1202;-78
2022/12/17 14:22:41;;;;;;;0.00;0.00;;;;;;;;;;338566;29;1502;-79
2022/12/17 14:22:52;;;;;;;0.00;0.00;;;;;;;;;;334885;29;1445;-79
2022/12/17 14:23:04;;;;;;;0.00;0.00;;;;;;;;;;331273;29;1477;-79
2022/12/17 14:23:23;;;;;;;0.00;0.00;;;;;;;;;;328441;30;1967;-80
2022/12/17 14:23:33;;;;;;;0.00;0.00;;;;;;;;;;324934;30;1403;-80
2022/12/17 14:23:46;;;;;;;0.20;0.10;;;;;;;;;;328092;30;1742;-80
2022/12/17 14:23:56;;;;;;;0.20;0.10;;;;;;;;;;326841;30;1306;-79
2022/12/17 14:24:08;;;;;;;0.07;0.03;;;;;;;;;;327452;30;1220;-79
2022/12/17 14:24:22;;;;;;;0.00;0.00;;;;;;;;;;325249;30;1393;-79
2022/12/17 14:24:32;;;;;;;0.00;0.00;;;;;;;;;;325417;30;1654;-78
2022/12/17 14:24:42;;;;;;;0.00;0.00;;;;;;;;;;320141;30;2138;-78
2022/12/17 14:24:52;;;;;;;0.00;0.00;;;;;;;;;;318999;30;1988;-79
2022/12/17 14:25:03;;;;;;;0.00;0.00;;;;;;;;;;319398;30;1370;-79
2022/12/17 14:25:23;;;;;;;0.00;0.00;;;;;;;;;;314341;31;1875;-78
2022/12/17 14:25:38;;;;;;;0.00;0.00;;;;;;;;;;314498;31;1450;-77
2022/12/17 14:25:48;;;;;;;0.00;0.00;;;;;;;;;;313496;31;1378;-78
2022/12/17 14:25:58;;;;;;;0.00;0.00;;;;;;;;;;311296;31;1921;-78
2022/12/17 14:26:09;;;;;;;0.00;0.00;;;;;;;;;;311073;31;1390;-78
2022/12/17 14:26:20;;;;;;;0.00;0.00;;;;;;;;;;312889;31;1336;-79
2022/12/17 14:26:30;;;;;;;0.00;0.00;;;;;;;;;;309815;31;1955;-79
2022/12/17 14:26:47;;;;;;;0.00;0.00;;;;;;;;;;305647;31;2577;-78
2022/12/17 14:26:58;;;;;;;0.00;0.00;;;;;;;;;;304582;32;2834;-78
2022/12/17 14:27:30;;;;;;;0.00;0.00;;;;;;;;;;302480;32;2917;-78
2022/12/17 14:27:40;;;;;;;0.00;0.00;;;;;;;;;;300510;32;3023;-79
2022/12/17 14:28:18;;;;;;;0.00;0.00;;;;;;;;;;297741;33;1342;-79
2022/12/17 14:28:29;;;;;;;0.00;0.00;;;;;;;;;;295420;33;2348;-79
2022/12/17 14:28:49;;;;;;;0.00;0.00;;;;;;;;;;293043;33;2678;-81
2022/12/17 14:28:59;;;;;;;0.00;0.00;;;;;;;;;;292819;33;3760;-79
2022/12/17 14:29:13;;;;;;;0.00;0.00;;;;;;;;;;293063;33;4255;-80
2022/12/17 14:29:23;;;;;;;0.00;0.00;;;;;;;;;;295207;33;3460;-79
2022/12/17 14:29:43;;;;;;;0.00;0.00;;;;;;;;;;291505;33;1356;-79
2022/12/17 14:29:53;;;;;;;0.00;0.00;;;;;;;;;;293348;33;3809;-79
2022/12/17 14:30:25;;;;;;;0.00;0.00;;;;;;;;;;291309;33;1259;-79
2022/12/17 14:30:37;;;;;;;0.00;0.00;;;;;;;;;;286269;34;1370;-79
2022/12/17 14:30:47;;;;;;;0.00;0.00;;;;;;;;;;281486;35;1461;-79
2022/12/17 14:31:04;;;;;;;0.00;0.00;;;;;;;;;;285251;34;4130;-78
2022/12/17 14:31:21;;;;;;;0.00;0.00;;;;;;;;;;284214;34;5506;-79
2022/12/17 14:31:32;;;;;;;0.00;0.00;;;;;;;;;;281308;35;1523;-79
2022/12/17 14:31:50;;;;;;;0.00;0.00;;;;;;;;;;279047;34;4732;-79
2022/12/17 14:32:01;;;;;;;0.00;0.00;;;;;;;;;;279474;34;5020;-80
2022/12/17 14:32:22;;;;;;;0.00;0.00;;;;;;;;;;278534;35;5281;-80
2022/12/17 14:32:35;;;;;;;0.00;0.00;;;;;;;;;;275519;35;1307;-79
2022/12/17 14:32:45;;;;;;;0.00;0.00;;;;;;;;;;274974;35;4254;-77
2022/12/17 14:32:57;;;;;;;0.00;0.00;;;;;;;;;;273242;35;5592;-78
2022/12/17 14:33:26;;;;;;;0.00;0.00;;;;;;;;;;270829;36;6661;-79
2022/12/17 14:33:36;;;;;;;0.00;0.00;;;;;;;;;;270914;36;8346;-78
2022/12/17 14:33:47;;;;;;;0.00;0.00;;;;;;;;;;269451;36;1244;-78
2022/12/17 14:34:06;;;;;;;0.00;0.00;;;;;;;;;;266182;36;7691;-80
2022/12/17 14:34:16;;;;;;;0.00;0.00;;;;;;;;;;265756;36;5490;-79
2022/12/17 14:36:34;;;;;;;0.16;0.16;;;;;;;;;;2497742;27;20325;-78
2022/12/17 14:36:45;;;;;;;0.00;0.00;;;;;;;;;;353598;27;839;-80
2022/12/17 14:36:56;;;;;;;0.00;0.00;;;;;;;;;;352694;28;1359;-79
2022/12/17 14:37:12;;;;;;;0.00;0.00;;;;;;;;;;351027;28;1077;-79
2022/12/17 14:37:23;;;;;;;0.00;0.00;;;;;;;;;;349466;28;1418;-79
2022/12/17 14:37:33;;;;;;;0.00;0.00;;;;;;;;;;347353;28;871;-79
2022/12/17 14:37:45;;;;;;;0.00;0.00;;;;;;;;;;348009;28;950;-79
2022/12/17 14:37:55;;;;;;;0.00;0.00;;;;;;;;;;348363;28;1344;-79
2022/12/17 14:38:14;;;;;;;0.00;0.00;;;;;;;;;;348322;28;865;-79
2022/12/17 14:38:24;;;;;;;0.00;0.00;;;;;;;;;;345886;28;1093;-77
2022/12/17 14:38:35;;;;;;;0.00;0.00;;;;;;;;;;346477;28;1189;-79
2022/12/17 14:38:51;;;;;;;0.00;0.00;;;;;;;;;;347809;28;831;-78
2022/12/17 14:39:02;;;;;;;0.00;0.00;;;;;;;;;;350610;28;1270;-78
2022/12/17 14:39:15;;;;;;;0.00;0.00;;;;;;;;;;351036;28;1352;-78
2022/12/17 14:39:27;;;;;;;0.00;0.00;;;;;;;;;;351361;28;2000;-78
2022/12/17 14:39:37;;;;;;;0.00;0.00;;;;;;;;;;352436;28;1321;-78
2022/12/17 14:39:48;;;;;;;0.00;0.00;;;;;;;;;;348651;28;1384;-77
2022/12/17 14:40:00;;;;;;;0.00;0.00;;;;;;;;;;349575;28;1320;-77
2022/12/17 14:40:12;;;;;;;0.00;0.00;;;;;;;;;;348617;28;1362;-79
2022/12/17 14:40:22;;;;;;;0.00;0.00;;;;;;;;;;349581;28;1275;-79
2022/12/17 14:40:32;;;;;;;0.00;0.00;;;;;;;;;;347068;28;1196;-79
2022/12/17 14:40:44;;;;;;;0.03;0.03;;;;;;;;;;343279;28;1296;-79
2022/12/17 14:40:59;;;;;;;0.08;0.08;;;;;;;;;;343059;28;1443;-78
2022/12/17 14:42:28;;;;;;;0.00;0.00;;;;;;;;;;340909;28;912;-78
2022/12/17 14:42:38;;;;;;;0.00;0.00;;;;;;;;;;336762;29;932;-78
2022/12/17 14:42:48;;;;;;;0.00;0.00;;;;;;;;;;338179;29;1295;-78